Terminal Aerodrome Forecast
Issued by NWS Wilmington, OH

Current Version | Previous Version | Text Only | Print | Product List | Glossary Off
Versions: 1 2 3 4 5 6 7 8 9 10 11 12 13

000
FTUS41 KILN 232335 AAA
TAFDAY
TAF AMD
KDAY 232335Z 2400/2424 05010KT P6SM BKN200
     FM240700 04006KT P6SM SCT250
     FM241400 07010KT P6SM SCT200
     FM242000 09011KT P6SM SCT050 BKN080=

USA.gov is the U.S. government's official web portal to all federal, state and local government web resources and services.